Time;durP1;ratioP1;P1;durP2;ratioP2;P2;SDS_P1;SDS_P2;PMS_P1;PMS_P2;Temp;Humidity;BMP_temperature;BMP_pressure;BME280_temperature;BME280_humidity;BME280_pressure;Samples;Min_cycle;Max_cycle;Signal;HPM_P1;HPM_P2
2022/12/09 00:01:27;;;;;;;;;;;;;;;27.28;46.11;96737.03;613719;231;68815;-69
2022/12/09 00:03:55;;;;;;;;;;;;;;;27.27;47.45;96745.46;613757;231;68619;-69
2022/12/09 00:06:24;;;;;;;;;;;;;;;27.27;45.67;96754.34;613764;231;62949;-69
2022/12/09 00:08:52;;;;;;;;;;;;;;;27.25;46.75;96748.47;613742;231;68892;-69
2022/12/09 00:11:20;;;;;;;;;;;;;;;27.25;46.07;96744.98;613725;231;68713;-69
2022/12/09 00:13:48;;;;;;;;;;;;;;;27.23;47.31;96751.50;613726;231;65259;-69
2022/12/09 00:16:15;;;;;;;;;;;;;;;27.22;45.50;96749.11;613729;231;68817;-69
2022/12/09 00:18:43;;;;;;;;;;;;;;;27.20;45.91;96741.34;613704;231;68652;-69
2022/12/09 00:21:12;;;;;;;;;;;;;;;27.21;46.85;96742.92;613725;231;65129;-69
2022/12/09 00:23:40;;;;;;;;;;;;;;;27.19;45.88;96742.44;613385;231;68985;-69
2022/12/09 00:26:07;;;;;;;;;;;;;;;27.19;46.41;96744.34;613727;231;68774;-69
2022/12/09 00:28:35;;;;;;;;;;;;;;;27.17;46.33;96744.69;619470;228;65084;-69
2022/12/09 00:31:02;;;;;;;;;;;;;;;27.16;45.80;96737.69;620530;228;68676;-69
2022/12/09 00:33:30;;;;;;;;;;;;;;;27.16;46.95;96745.78;620514;228;68501;-69
2022/12/09 00:36:06;;;;;;;;;;;;;;;27.15;47.11;96744.17;620500;228;64708;-69
2022/12/09 00:38:33;;;;;;;;;;;;;;;27.14;46.54;96742.56;620188;228;68766;-69
2022/12/09 00:41:01;;;;;;;;;;;;;;;27.13;46.27;96750.99;620454;228;69295;-69
2022/12/09 00:43:29;;;;;;;;;;;;;;;27.12;46.69;96744.81;620494;228;64871;-69
2022/12/09 00:45:56;;;;;;;;;;;;;;;27.11;45.91;96753.20;620486;228;68724;-69
2022/12/09 00:48:25;;;;;;;;;;;;;;;27.10;46.31;96757.02;620462;228;68521;-69
2022/12/09 00:50:53;;;;;;;;;;;;;;;27.10;47.05;96757.02;620493;228;65242;-69
2022/12/09 00:53:20;;;;;;;;;;;;;;;27.08;47.59;96754.63;620480;228;68712;-69
2022/12/09 00:55:48;;;;;;;;;;;;;;;27.08;46.20;96760.02;620551;228;68431;-69
2022/12/09 00:58:15;;;;;;;;;;;;;;;27.06;46.17;96767.63;620480;228;64886;-69
2022/12/09 01:00:43;;;;;;;;;;;;;;;27.05;46.52;96768.75;620519;228;67824;-69
2022/12/09 01:03:14;;;;;;;;;;;;;;;27.05;45.95;96759.88;620489;228;68394;-69
2022/12/09 01:05:42;;;;;;;;;;;;;;;27.04;46.04;96763.66;620503;228;62734;-67
2022/12/09 01:08:12;;;;;;;;;;;;;;;27.02;46.67;96761.30;620562;228;68846;-67
2022/12/09 01:10:40;;;;;;;;;;;;;;;27.01;47.05;96759.72;620513;228;70307;-67
2022/12/09 01:13:08;;;;;;;;;;;;;;;27.01;46.44;96762.42;620505;228;65117;-67
2022/12/09 01:15:36;;;;;;;;;;;;;;;27.00;46.56;96761.60;620518;228;68748;-68
2022/12/09 01:18:03;;;;;;;;;;;;;;;27.00;46.61;96768.91;620497;228;68417;-68
2022/12/09 01:20:31;;;;;;;;;;;;;;;26.98;45.83;96763.84;620499;228;65044;-67
2022/12/09 01:22:59;;;;;;;;;;;;;;;26.98;46.15;96761.14;620535;228;69421;-68
2022/12/09 01:25:26;;;;;;;;;;;;;;;26.96;46.11;96751.78;620440;228;68532;-67
2022/12/09 01:27:54;;;;;;;;;;;;;;;26.96;46.34;96757.18;620478;228;65014;-67
2022/12/09 01:30:21;;;;;;;;;;;;;;;26.94;47.00;96752.09;620495;228;68899;-67
2022/12/09 01:32:49;;;;;;;;;;;;;;;26.92;46.41;96751.60;620488;228;69420;-67
2022/12/09 01:35:16;;;;;;;;;;;;;;;26.92;47.38;96759.69;620531;228;64805;-67
2022/12/09 01:37:44;;;;;;;;;;;;;;;26.90;46.25;96756.53;620480;228;68824;-67
2022/12/09 01:40:15;;;;;;;;;;;;;;;26.89;46.81;96751.45;620487;228;69307;-68
2022/12/09 01:42:43;;;;;;;;;;;;;;;26.89;46.47;96763.02;620491;228;63051;-67
2022/12/09 01:45:29;;;;;;;;;;;;;;;26.89;46.77;96756.84;620471;228;68809;-67
2022/12/09 01:47:58;;;;;;;;;;;;;;;26.88;47.20;96756.05;620330;228;68520;-67
2022/12/09 01:50:27;;;;;;;;;;;;;;;26.87;46.99;96759.05;620458;228;65403;-67
2022/12/09 01:52:55;;;;;;;;;;;;;;;26.86;46.90;96763.66;620490;228;68763;-67
2022/12/09 01:55:24;;;;;;;;;;;;;;;26.85;46.97;96755.90;620468;228;69541;-68
2022/12/09 01:57:52;;;;;;;;;;;;;;;26.84;46.34;96754.30;620480;228;64962;-68
2022/12/09 02:00:20;;;;;;;;;;;;;;;26.83;46.41;96755.41;620487;228;66901;-68
2022/12/09 02:02:50;;;;;;;;;;;;;;;26.82;47.78;96751.11;620554;228;46857;-68
2022/12/09 02:05:19;;;;;;;;;;;;;;;26.79;47.61;96753.35;620462;228;62496;-68
2022/12/09 02:07:48;;;;;;;;;;;;;;;26.78;47.08;96746.35;620413;228;47571;-69
2022/12/09 02:10:17;;;;;;;;;;;;;;;26.78;47.35;96742.88;620469;228;66371;-69
2022/12/09 02:13:03;;;;;;;;;;;;;;;26.76;48.20;96748.59;619574;228;45535;-69
2022/12/09 02:15:32;;;;;;;;;;;;;;;26.76;47.33;96753.17;619469;228;68507;-69
2022/12/09 02:18:01;;;;;;;;;;;;;;;26.75;47.00;96752.38;620397;228;68570;-69
2022/12/09 02:20:36;;;;;;;;;;;;;;;26.73;47.68;96757.28;620452;228;65786;-69
2022/12/09 02:23:10;;;;;;;;;;;;;;;26.73;46.59;96753.80;620460;228;71024;-69
2022/12/09 02:25:54;;;;;;;;;;;;;;;26.72;47.28;96752.22;620433;228;66422;-69
2022/12/09 02:28:23;;;;;;;;;;;;;;;26.70;47.17;96755.22;615324;228;64971;-67
2022/12/09 02:30:55;;;;;;;;;;;;;;;26.70;49.29;96743.65;613312;231;66332;-67
2022/12/09 02:33:28;;;;;;;;;;;;;;;26.68;48.60;96741.28;613759;231;68585;-67
2022/12/09 02:35:56;;;;;;;;;;;;;;;26.65;46.71;96746.48;613685;231;65074;-66
2022/12/09 02:38:29;;;;;;;;;;;;;;;26.65;47.82;96736.50;613748;231;68802;-66
2022/12/09 02:40:58;;;;;;;;;;;;;;;26.64;47.70;96748.40;613646;230;74959;-67
2022/12/09 02:43:28;;;;;;;;;;;;;;;26.64;47.73;96747.61;609074;231;63041;-68
2022/12/09 02:45:57;;;;;;;;;;;;;;;26.61;46.77;96751.72;613663;231;66208;-68
2022/12/09 02:48:26;;;;;;;;;;;;;;;26.62;47.93;96741.73;613742;231;68768;-68
2022/12/09 02:50:56;;;;;;;;;;;;;;;26.60;48.18;96739.37;613657;230;62517;-68
2022/12/09 02:53:24;;;;;;;;;;;;;;;26.59;47.08;96742.36;613734;231;66715;-68
2022/12/09 02:55:54;;;;;;;;;;;;;;;26.58;48.26;96735.39;613686;231;68566;-68
2022/12/09 02:58:22;;;;;;;;;;;;;;;26.57;47.98;96734.58;613702;231;65890;-69
2022/12/09 03:00:50;;;;;;;;;;;;;;;26.55;48.00;96732.22;613748;231;66233;-68
2022/12/09 03:03:18;;;;;;;;;;;;;;;26.55;49.70;96734.91;613731;231;69215;-69
2022/12/09 03:05:47;;;;;;;;;;;;;;;26.54;49.23;96729.82;613686;231;65039;-68
2022/12/09 03:08:19;;;;;;;;;;;;;;;26.53;48.57;96723.64;613652;230;66866;-69
2022/12/09 03:10:54;;;;;;;;;;;;;;;26.52;48.49;96723.97;613682;231;69076;-69
2022/12/09 03:13:26;;;;;;;;;;;;;;;26.50;49.24;96723.45;613675;231;64888;-69
2022/12/09 03:15:55;;;;;;;;;;;;;;;26.50;47.89;96736.93;613549;231;66416;-69
2022/12/09 03:18:24;;;;;;;;;;;;;;;26.49;49.07;96727.23;613634;230;68647;-69
2022/12/09 03:20:52;;;;;;;;;;;;;;;26.48;48.17;96729.14;613736;231;62763;-69
2022/12/09 03:23:21;;;;;;;;;;;;;;;26.48;47.62;96736.44;613696;231;66715;-69
2022/12/09 03:25:51;;;;;;;;;;;;;;;26.47;49.55;96743.73;613699;231;68945;-69
2022/12/09 03:28:19;;;;;;;;;;;;;;;26.46;49.13;96752.12;613737;229;66706;-69
2022/12/09 03:30:48;;;;;;;;;;;;;;;26.44;50.35;96741.67;613676;228;66030;-69
2022/12/09 03:33:17;;;;;;;;;;;;;;;26.43;49.08;96748.15;613739;231;66654;-69
2022/12/09 03:35:46;;;;;;;;;;;;;;;26.43;48.53;96753.54;613701;231;62912;-69
2022/12/09 03:38:15;;;;;;;;;;;;;;;26.42;49.31;96760.05;613659;231;69069;-69
2022/12/09 03:40:43;;;;;;;;;;;;;;;26.41;48.92;96768.42;613708;231;68682;-68
2022/12/09 03:43:15;;;;;;;;;;;;;;;26.40;49.65;96756.07;613771;231;65046;-69
2022/12/09 03:45:42;;;;;;;;;;;;;;;26.40;49.30;96759.55;613720;231;66537;-69
2022/12/09 03:48:11;;;;;;;;;;;;;;;26.38;48.98;96763.66;613745;231;66455;-69
2022/12/09 03:50:42;;;;;;;;;;;;;;;26.38;50.54;96763.66;613705;231;62769;-69
2022/12/09 03:53:11;;;;;;;;;;;;;;;26.36;49.86;96761.30;613628;231;68867;-70
2022/12/09 03:55:43;;;;;;;;;;;;;;;26.34;51.08;96764.30;613779;231;68798;-68
2022/12/09 03:58:12;;;;;;;;;;;;;;;26.34;49.21;96758.91;613672;231;65000;-66
2022/12/09 04:00:39;;;;;;;;;;;;;;;26.31;48.68;96759.53;613713;231;66706;-66
2022/12/09 04:03:07;;;;;;;;;;;;;;;26.31;50.01;96753.36;613723;231;66734;-66
2022/12/09 04:05:35;;;;;;;;;;;;;;;26.29;50.63;96761.73;613675;231;65113;-66
2022/12/09 04:08:02;;;;;;;;;;;;;;;26.29;49.48;96755.56;613800;231;68859;-66
2022/12/09 04:10:30;;;;;;;;;;;;;;;26.27;50.00;96755.07;613721;231;68790;-66
2022/12/09 04:12:57;;;;;;;;;;;;;;;26.28;51.16;96751.29;613727;231;65117;-66
2022/12/09 04:15:25;;;;;;;;;;;;;;;26.24;49.30;96753.79;613726;231;68744;-69
2022/12/09 04:17:52;;;;;;;;;;;;;;;26.24;51.86;96755.70;613765;231;68448;-66
2022/12/09 04:20:21;;;;;;;;;;;;;;;26.23;49.61;96746.83;613700;231;41966;-66
2022/12/09 04:22:49;;;;;;;;;;;;;;;26.22;51.40;96756.02;613782;231;68847;-66
2022/12/09 04:25:18;;;;;;;;;;;;;;;26.21;49.03;96754.42;613695;231;68979;-66
2022/12/09 04:27:45;;;;;;;;;;;;;;;26.21;50.10;96750.94;617128;228;65257;-67
2022/12/09 04:30:13;;;;;;;;;;;;;;;26.19;50.28;96753.95;620511;228;68798;-68
2022/12/09 04:32:40;;;;;;;;;;;;;;;26.18;49.85;96757.73;620451;228;68666;-68
2022/12/09 04:35:08;;;;;;;;;;;;;;;26.17;50.79;96750.77;620548;228;65071;-68
2022/12/09 04:37:36;;;;;;;;;;;;;;;26.16;50.95;96748.38;620505;228;68821;-68
2022/12/09 04:40:05;;;;;;;;;;;;;;;26.16;50.94;96759.15;620481;228;68725;-68
2022/12/09 04:42:33;;;;;;;;;;;;;;;26.13;50.81;96758.66;620542;228;65055;-68
2022/12/09 04:45:01;;;;;;;;;;;;;;;26.12;51.80;96762.47;620495;228;68925;-68
2022/12/09 04:47:28;;;;;;;;;;;;;;;26.12;51.01;96761.67;620486;228;69370;-68
2022/12/09 04:49:55;;;;;;;;;;;;;;;26.12;50.55;96750.91;620372;228;65186;-68
2022/12/09 04:52:24;;;;;;;;;;;;;;;26.11;51.41;96763.58;619240;228;69706;-68
2022/12/09 04:54:51;;;;;;;;;;;;;;;26.10;50.66;96766.57;620492;228;68641;-68
2022/12/09 04:57:20;;;;;;;;;;;;;;;26.08;51.37;96772.28;620469;228;64964;-68
2022/12/09 04:59:48;;;;;;;;;;;;;;;26.07;52.31;96773.37;619586;228;68859;-68
2022/12/09 05:02:15;;;;;;;;;;;;;;;26.06;50.69;96773.70;620202;228;69952;-68
2022/12/09 05:04:45;;;;;;;;;;;;;;;26.06;49.66;96768.31;620489;228;65217;-68
2022/12/09 05:07:12;;;;;;;;;;;;;;;26.05;51.97;96766.70;620492;228;68333;-69
2022/12/09 05:09:39;;;;;;;;;;;;;;;26.04;51.54;96770.52;620481;228;68506;-69
2022/12/09 05:12:07;;;;;;;;;;;;;;;26.04;51.10;96781.28;620565;228;65054;-69
2022/12/09 05:14:35;;;;;;;;;;;;;;;26.03;51.52;96779.70;620506;228;68491;-69
2022/12/09 05:17:03;;;;;;;;;;;;;;;26.02;51.14;96783.48;620527;228;68433;-69
2022/12/09 05:19:31;;;;;;;;;;;;;;;26.01;51.20;96779.21;620525;228;65200;-69
2022/12/09 05:21:58;;;;;;;;;;;;;;;25.98;51.70;96777.14;620487;228;68316;-69
2022/12/09 05:24:26;;;;;;;;;;;;;;;25.98;50.81;96769.06;620531;228;68723;-69
2022/12/09 05:26:53;;;;;;;;;;;;;;;25.97;52.49;96770.15;620486;228;65053;-69
2022/12/09 05:29:20;;;;;;;;;;;;;;;25.96;52.09;96773.95;620479;228;68498;-69
2022/12/09 05:31:50;;;;;;;;;;;;;;;25.94;50.71;96778.84;620494;228;68488;-69
2022/12/09 05:34:18;;;;;;;;;;;;;;;25.95;50.44;96796.61;620481;228;65055;-69
2022/12/09 05:36:45;;;;;;;;;;;;;;;25.94;51.46;96792.31;620462;228;68831;-69
2022/12/09 05:39:13;;;;;;;;;;;;;;;25.93;51.20;96790.73;620521;228;66936;-69
2022/12/09 05:41:42;;;;;;;;;;;;;;;25.94;50.92;96792.31;620423;228;65823;-69
2022/12/09 05:44:11;;;;;;;;;;;;;;;25.93;51.58;96791.52;620418;228;66681;-69
2022/12/09 05:46:38;;;;;;;;;;;;;;;25.93;52.49;96790.73;620228;228;66631;-69
2022/12/09 05:49:06;;;;;;;;;;;;;;;25.93;51.26;96801.50;620457;228;65073;-69
2022/12/09 05:51:34;;;;;;;;;;;;;;;25.91;50.32;96799.89;620487;228;68778;-69
2022/12/09 05:54:02;;;;;;;;;;;;;;;25.94;51.12;96805.77;620427;228;66739;-69
2022/12/09 05:56:29;;;;;;;;;;;;;;;25.93;49.63;96796.12;620482;228;65063;-69
2022/12/09 05:58:56;;;;;;;;;;;;;;;25.93;49.76;96802.29;620496;228;66598;-69
2022/12/09 06:01:25;;;;;;;;;;;;;;;25.95;50.23;96797.40;620467;228;66737;-69
2022/12/09 06:03:53;;;;;;;;;;;;;;;25.96;49.89;96792.80;620532;228;65100;-69
2022/12/09 06:06:22;;;;;;;;;;;;;;;25.96;50.47;96800.87;620447;228;68932;-68
2022/12/09 06:08:51;;;;;;;;;;;;;;;25.97;49.13;96802.45;620463;228;66691;-69
2022/12/09 06:11:20;;;;;;;;;;;;;;;25.95;50.82;96800.09;620400;228;62975;-68
2022/12/09 06:13:48;;;;;;;;;;;;;;;25.97;50.64;96802.45;620453;228;66690;-69
2022/12/09 06:16:17;;;;;;;;;;;;;;;25.96;49.41;96798.97;620538;228;66689;-69
2022/12/09 06:18:45;;;;;;;;;;;;;;;25.97;50.12;96797.86;620488;228;65065;-68
2022/12/09 06:21:13;;;;;;;;;;;;;;;25.97;51.14;96803.25;620480;228;66701;-69
2022/12/09 06:23:42;;;;;;;;;;;;;;;25.98;51.31;96793.30;619989;228;66676;-68
2022/12/09 06:26:17;;;;;;;;;;;;;;;25.99;51.21;96809.13;620302;228;65046;-68
2022/12/09 06:28:44;;;;;;;;;;;;;;;26.00;49.88;96807.22;620202;228;66426;-68
2022/12/09 06:31:12;;;;;;;;;;;;;;;26.01;49.63;96808.83;620539;228;66507;-67
2022/12/09 06:33:39;;;;;;;;;;;;;;;26.02;49.14;96810.41;620435;228;62964;-67
2022/12/09 06:36:07;;;;;;;;;;;;;;;26.03;50.94;96803.94;620474;228;66551;-68
2022/12/09 06:38:35;;;;;;;;;;;;;;;26.03;52.16;96801.25;620446;228;68729;-67
2022/12/09 06:41:06;;;;;;;;;;;;;;;26.04;50.36;96803.61;620371;228;65839;-67
2022/12/09 06:43:34;;;;;;;;;;;;;;;26.06;49.03;96809.49;620530;228;66727;-68
2022/12/09 06:46:01;;;;;;;;;;;;;;;26.07;51.94;96807.59;620406;228;66432;-68
2022/12/09 06:48:29;;;;;;;;;;;;;;;26.08;50.14;96809.17;619654;228;62972;-68
2022/12/09 06:50:56;;;;;;;;;;;;;;;26.09;47.91;96810.77;619182;228;66613;-68
2022/12/09 06:53:27;;;;;;;;;;;;;;;26.11;52.13;96800.50;612918;231;48884;-68
2022/12/09 06:55:55;;;;;;;;;;;;;;;26.10;51.98;96802.37;616596;228;62989;-68
2022/12/09 06:58:22;;;;;;;;;;;;;;;26.12;51.24;96804.77;620131;228;68775;-68
2022/12/09 07:00:50;;;;;;;;;;;;;;;26.14;50.96;96791.80;620271;228;68715;-67
2022/12/09 07:03:17;;;;;;;;;;;;;;;26.16;51.00;96794.95;620282;228;65045;-68
2022/12/09 07:05:45;;;;;;;;;;;;;;;26.16;49.22;96794.95;620351;228;66594;-66
2022/12/09 07:08:13;;;;;;;;;;;;;;;26.15;44.18;96793.38;620283;228;68775;-67
2022/12/09 07:10:44;;;;;;;;;;;;;;;26.18;47.85;96794.66;620230;228;63105;-67
2022/12/09 07:13:11;;;;;;;;;;;;;;;26.19;49.84;96802.44;620297;228;68366;-67
2022/12/09 07:15:39;;;;;;;;;;;;;;;26.21;51.51;96796.72;620334;228;68576;-67
2022/12/09 07:18:07;;;;;;;;;;;;;;;26.21;49.01;96788.64;620203;228;64823;-66
2022/12/09 07:20:35;;;;;;;;;;;;;;;26.22;48.72;96788.34;620340;228;69065;-66
2022/12/09 07:23:02;;;;;;;;;;;;;;;26.24;50.03;96791.50;620368;228;68759;-66
2022/12/09 07:25:30;;;;;;;;;;;;;;;26.24;48.48;96794.19;620261;228;65098;-66
2022/12/09 07:27:57;;;;;;;;;;;;;;;26.26;49.93;96794.69;617091;228;66427;-66
2022/12/09 07:30:28;;;;;;;;;;;;;;;26.27;48.60;96798.98;614822;230;50665;-67
2022/12/09 07:32:58;;;;;;;;;;;;;;;26.28;49.18;96792.48;614845;230;64868;-69
2022/12/09 07:35:25;;;;;;;;;;;;;;;26.29;47.66;96794.06;614910;229;68602;-67
2022/12/09 07:37:54;;;;;;;;;;;;;;;26.31;47.83;96797.25;614821;230;66766;-67
2022/12/09 07:40:23;;;;;;;;;;;;;;;26.33;49.63;96799.64;614772;230;42369;-69
2022/12/09 07:42:53;;;;;;;;;;;;;;;26.32;49.45;96798.83;614710;230;66343;-68
2022/12/09 07:45:23;;;;;;;;;;;;;;;26.32;46.25;96798.83;614808;230;68575;-66
2022/12/09 07:47:52;;;;;;;;;;;;;;;26.34;47.20;96793.92;614601;230;43634;-67
2022/12/09 07:50:20;;;;;;;;;;;;;;;26.34;46.36;96796.62;614853;230;68706;-67
2022/12/09 07:52:48;;;;;;;;;;;;;;;26.37;46.36;96799.80;614734;230;68716;-67
2022/12/09 07:55:17;;;;;;;;;;;;;;;26.38;48.92;96801.38;614832;230;65094;-67
2022/12/09 07:57:49;;;;;;;;;;;;;;;26.38;48.69;96793.30;614837;230;68788;-66
2022/12/09 08:00:19;;;;;;;;;;;;;;;26.39;47.22;96792.22;614793;230;68484;-66
2022/12/09 08:02:48;;;;;;;;;;;;;;;26.40;46.73;96799.18;614879;230;65025;-67
2022/12/09 08:05:18;;;;;;;;;;;;;;;26.42;47.66;96799.67;614814;230;68658;-68
2022/12/09 08:07:45;;;;;;;;;;;;;;;26.41;47.62;96800.76;614716;230;69233;-67
2022/12/09 08:10:13;;;;;;;;;;;;;;;26.42;48.45;96805.06;614812;230;64692;-66
2022/12/09 08:12:40;;;;;;;;;;;;;;;26.43;46.75;96814.72;614850;230;68697;-67
2022/12/09 08:15:12;;;;;;;;;;;;;;;26.44;47.72;96808.24;614730;230;47541;-66
2022/12/09 08:17:40;;;;;;;;;;;;;;;26.45;46.97;96809.83;614895;230;65222;-67
2022/12/09 08:20:07;;;;;;;;;;;;;;;26.45;47.63;96805.22;614801;230;68658;-67
2022/12/09 08:22:39;;;;;;;;;;;;;;;26.46;47.97;96814.09;614794;230;48677;-67
2022/12/09 08:25:07;;;;;;;;;;;;;;;26.47;46.79;96813.01;614895;230;64906;-68
2022/12/09 08:27:35;;;;;;;;;;;;;;;26.48;47.23;96819.98;614771;230;68497;-68
2022/12/09 08:30:03;;;;;;;;;;;;;;;26.49;47.16;96813.47;614924;230;68782;-67
2022/12/09 08:32:31;;;;;;;;;;;;;;;26.50;46.29;96796.21;614843;230;65073;-67
2022/12/09 08:34:58;;;;;;;;;;;;;;;26.50;46.77;96794.30;614850;230;69084;-67
2022/12/09 08:37:27;;;;;;;;;;;;;;;26.52;47.86;96791.34;614839;230;68413;-67
2022/12/09 08:39:56;;;;;;;;;;;;;;;26.51;48.79;96787.04;614783;230;47817;-68
2022/12/09 08:42:25;;;;;;;;;;;;;;;26.52;49.41;96780.56;614855;230;69567;-69
2022/12/09 08:44:54;;;;;;;;;;;;;;;26.53;47.47;96782.14;614788;230;68619;-69
2022/12/09 08:47:21;;;;;;;;;;;;;;;26.56;44.71;96786.91;614812;230;64946;-68
2022/12/09 08:49:49;;;;;;;;;;;;;;;26.56;48.05;96785.00;614828;230;68818;-68
2022/12/09 08:52:16;;;;;;;;;;;;;;;26.56;46.04;96776.91;614829;230;68755;-68
2022/12/09 08:54:44;;;;;;;;;;;;;;;26.59;41.85;96780.88;614892;230;65264;-69
2022/12/09 08:57:11;;;;;;;;;;;;;;;26.62;43.84;96782.16;614824;230;68785;-68
2022/12/09 08:59:39;;;;;;;;;;;;;;;26.63;41.97;96762.99;614874;230;68856;-68
2022/12/09 09:02:06;;;;;;;;;;;;;;;26.65;44.07;96768.84;614870;230;65114;-68
2022/12/09 09:04:33;;;;;;;;;;;;;;;26.64;48.42;96761.87;614837;230;68804;-67
2022/12/09 09:07:01;;;;;;;;;;;;;;;26.63;49.43;96762.99;614846;230;69469;-67
2022/12/09 09:09:28;;;;;;;;;;;;;;;26.64;45.56;96751.09;614936;230;64981;-67
2022/12/09 09:11:58;;;;;;;;;;;;;;;26.65;47.45;96744.58;614852;230;48523;-68
2022/12/09 09:14:28;;;;;;;;;;;;;;;26.65;49.92;96730.32;614890;230;68230;-67
2022/12/09 09:16:55;;;;;;;;;;;;;;;26.64;49.14;96716.05;614857;230;64880;-67
2022/12/09 09:19:26;;;;;;;;;;;;;;;26.64;49.38;96710.66;614849;230;68599;-66
2022/12/09 09:21:54;;;;;;;;;;;;;;;26.66;48.99;96700.37;614937;230;66420;-66
2022/12/09 09:24:23;;;;;;;;;;;;;;;26.65;48.54;96698.77;614767;230;63012;-67
2022/12/09 09:26:52;;;;;;;;;;;;;;;26.67;49.72;96701.16;614837;230;68511;-66
2022/12/09 09:29:20;;;;;;;;;;;;;;;26.67;49.69;96693.07;614868;230;68456;-65
2022/12/09 09:31:52;;;;;;;;;;;;;;;26.67;49.26;96693.07;614774;230;65277;-65
2022/12/09 09:34:18;;;;;;;;;;;;;;;26.67;51.52;96685.77;607368;230;68527;-67
2022/12/09 09:36:45;;;;;;;;;;;;;;;26.67;49.56;96691.16;614903;230;68768;-66
2022/12/09 09:39:13;;;;;;;;;;;;;;;26.68;50.28;96703.55;611751;230;65113;-66
2022/12/09 09:41:57;;;;;;;;;;;;;;;26.68;49.13;96697.34;607993;233;68350;-66
2022/12/09 09:44:29;;;;;;;;;;;;;;;26.69;50.08;96696.25;607924;233;66771;-68
2022/12/09 09:46:57;;;;;;;;;;;;;;;26.69;49.15;96688.16;607639;233;63141;-68
2022/12/09 09:49:35;;;;;;;;;;;;;;;26.68;49.82;96681.98;607935;233;66748;-68
2022/12/09 09:52:04;;;;;;;;;;;;;;;26.69;49.84;96674.69;607020;233;66422;-68
2022/12/09 09:54:32;;;;;;;;;;;;;;;26.69;50.80;96678.17;607929;233;62153;-68
2022/12/09 09:57:03;;;;;;;;;;;;;;;26.69;50.99;96678.17;607966;233;68635;-67
2022/12/09 09:59:33;;;;;;;;;;;;;;;26.70;50.41;96668.17;607943;233;66708;-68
2022/12/09 10:02:12;;;;;;;;;;;;;;;26.71;50.73;96670.56;607899;233;63133;-68
2022/12/09 10:04:59;;;;;;;;;;;;;;;26.70;50.30;96660.09;608060;233;68866;-68
2022/12/09 10:07:40;;;;;;;;;;;;;;;26.71;49.82;96657.09;607792;233;66462;-69
2022/12/09 10:10:15;;;;;;;;;;;;;;;26.72;48.68;96650.58;607928;233;65318;-69
2022/12/09 10:13:02;;;;;;;;;;;;;;;26.71;51.43;96648.19;607527;233;68688;-68
2022/12/09 10:15:33;;;;;;;;;;;;;;;26.70;50.33;96658.18;598822;236;66680;-69
2022/12/09 10:18:08;;;;;;;;;;;;;;;26.74;49.08;96642.97;598935;236;65308;-69
2022/12/09 10:20:36;;;;;;;;;;;;;;;26.74;50.12;96634.89;602628;233;66417;-69
2022/12/09 10:23:05;;;;;;;;;;;;;;;26.74;49.16;96637.58;607884;233;66657;-69
2022/12/09 10:25:34;;;;;;;;;;;;;;;26.74;49.10;96632.19;607897;233;64889;-68
2022/12/09 10:28:16;;;;;;;;;;;;;;;26.75;47.98;96627.59;609120;232;68602;-68
2022/12/09 10:30:43;;;;;;;;;;;;;;;26.74;50.55;96624.11;609898;230;68490;-68
2022/12/09 10:33:15;;;;;;;;;;;;;;;26.75;50.00;96620.28;609920;232;65967;-70
2022/12/09 10:35:43;;;;;;;;;;;;;;;26.74;48.72;96610.63;609887;232;68881;-69
2022/12/09 10:38:12;;;;;;;;;;;;;;;26.75;50.57;96604.11;609775;232;68917;-69
2022/12/09 10:40:51;;;;;;;;;;;;;;;26.76;49.88;96600.33;609624;232;65190;-69
2022/12/09 10:43:43;;;;;;;;;;;;;;;26.75;48.64;96596.03;609922;232;66780;-68
2022/12/09 10:46:09;;;;;;;;;;;;;;;26.74;45.66;96594.45;609416;231;68935;-70
2022/12/09 10:48:38;;;;;;;;;;;;;;;26.76;50.12;96597.62;609908;232;62979;-68
2022/12/09 10:51:22;;;;;;;;;;;;;;;26.76;49.28;96596.81;609842;232;66499;-68
2022/12/09 10:53:51;;;;;;;;;;;;;;;26.76;47.49;96600.33;609963;232;66569;-68
2022/12/09 10:56:20;;;;;;;;;;;;;;;26.77;48.82;96599.20;610010;232;65269;-69
2022/12/09 10:58:48;;;;;;;;;;;;;;;26.77;49.55;96606.50;609725;232;68669;-68
2022/12/09 11:01:16;;;;;;;;;;;;;;;26.77;47.82;96603.81;609933;232;68746;-69
2022/12/09 11:03:48;;;;;;;;;;;;;;;26.78;49.91;96616.17;609875;232;65126;-68
2022/12/09 11:06:23;;;;;;;;;;;;;;;26.78;49.17;96608.08;609807;232;66930;-69
2022/12/09 11:08:58;;;;;;;;;;;;;;;26.78;49.20;96606.17;609916;232;68759;-71
2022/12/09 11:11:42;;;;;;;;;;;;;;;26.78;48.35;96600.78;609781;232;62773;-69
2022/12/09 11:14:21;;;;;;;;;;;;;;;26.77;47.70;96593.81;609886;232;68624;-69
2022/12/09 11:16:49;;;;;;;;;;;;;;;26.77;48.06;96593.81;609834;232;68758;-69
2022/12/09 11:19:16;;;;;;;;;;;;;;;26.77;48.67;96585.72;609659;232;64911;-69
2022/12/09 11:21:45;;;;;;;;;;;;;;;26.77;48.62;96582.24;609959;232;66490;-70
2022/12/09 11:24:19;;;;;;;;;;;;;;;26.77;49.47;96577.64;609825;232;68600;-68
2022/12/09 11:26:47;;;;;;;;;;;;;;;26.78;49.13;96573.81;609870;232;63665;-68
2022/12/09 11:29:17;;;;;;;;;;;;;;;26.78;48.32;96575.73;609966;232;68694;-67
2022/12/09 11:31:45;;;;;;;;;;;;;;;26.77;50.15;96566.86;609957;232;68713;-67
2022/12/09 11:34:23;;;;;;;;;;;;;;;26.78;49.13;96564.95;609873;232;65167;-68
2022/12/09 11:36:52;;;;;;;;;;;;;;;26.76;49.28;96570.67;609864;232;68766;-66
2022/12/09 11:39:30;;;;;;;;;;;;;;;26.79;49.09;96570.03;612036;230;66772;-67
2022/12/09 11:42:21;;;;;;;;;;;;;;;26.77;49.06;96566.86;614147;230;65137;-67
2022/12/09 11:44:45;;;;;;;;;;;;;;;26.77;47.78;96577.64;614337;230;66630;-68
2022/12/09 11:47:14;;;;;;;;;;;;;;;26.78;48.39;96564.95;614841;230;66420;-67
2022/12/09 11:49:46;;;;;;;;;;;;;;;26.77;49.76;96560.67;613119;229;65010;-68
2022/12/09 11:52:18;;;;;;;;;;;;;;;26.77;49.17;96552.59;609777;232;68832;-67
2022/12/09 11:54:47;;;;;;;;;;;;;;;26.77;48.37;96539.90;609951;232;69011;-67
2022/12/09 11:57:16;;;;;;;;;;;;;;;26.77;50.23;96534.50;609971;232;65207;-67
2022/12/09 11:59:51;;;;;;;;;;;;;;;26.77;50.53;96536.42;608971;232;68786;-65
2022/12/09 12:02:23;;;;;;;;;;;;;;;26.76;50.22;96538.33;609904;232;66586;-67
2022/12/09 12:05:04;;;;;;;;;;;;;;;26.77;49.67;96539.90;609942;232;62973;-67
2022/12/09 12:07:45;;;;;;;;;;;;;;;26.78;49.84;96535.30;609816;232;68767;-67
2022/12/09 12:10:15;;;;;;;;;;;;;;;26.77;49.31;96523.72;609864;232;68752;-68
2022/12/09 12:12:56;;;;;;;;;;;;;;;26.78;50.77;96536.08;609868;232;63076;-68
2022/12/09 12:15:27;;;;;;;;;;;;;;;26.77;50.29;96526.42;609805;232;69351;-67
2022/12/09 12:17:56;;;;;;;;;;;;;;;26.77;49.88;96520.24;609797;232;66762;-68
2022/12/09 12:20:25;;;;;;;;;;;;;;;26.77;48.54;96514.85;609926;232;65064;-67
2022/12/09 12:22:55;;;;;;;;;;;;;;;26.76;47.94;96503.28;608823;232;66810;-67
2022/12/09 12:25:24;;;;;;;;;;;;;;;26.78;48.23;96519.12;609980;232;68628;-68
2022/12/09 12:28:03;;;;;;;;;;;;;;;26.66;48.38;96497.44;609936;232;65089;-68
2022/12/09 12:30:32;;;;;;;;;;;;;;;26.76;48.13;96511.37;609913;232;66621;-69
2022/12/09 12:33:16;;;;;;;;;;;;;;;26.77;48.87;96502.16;609711;230;66738;-68
2022/12/09 12:35:57;;;;;;;;;;;;;;;26.77;48.14;96507.55;609974;232;62985;-65
2022/12/09 12:38:33;;;;;;;;;;;;;;;26.77;44.18;96507.55;609882;232;68798;-66
2022/12/09 12:41:05;;;;;;;;;;;;;;;26.79;46.74;96499.12;609937;232;68714;-68
2022/12/09 12:46:26;;;;;;;;;;;;;;;26.82;48.02;96500.39;609934;232;68875;-67
2022/12/09 12:49:14;;;;;;;;;;;;;;;26.85;47.55;96507.86;609595;232;66686;-68
2022/12/09 12:51:43;;;;;;;;;;;;;;;26.86;47.76;96499.44;609931;232;65231;-67
2022/12/09 12:54:18;;;;;;;;;;;;;;;26.87;48.10;96502.92;608965;232;68780;-68
2022/12/09 12:56:48;;;;;;;;;;;;;;;26.88;47.38;96491.03;609968;232;68728;-69
2022/12/09 12:59:17;;;;;;;;;;;;;;;26.89;47.29;96500.70;609604;232;65275;-67
2022/12/09 13:01:52;;;;;;;;;;;;;;;26.89;46.87;96493.39;610016;232;68741;-68
2022/12/09 13:04:24;;;;;;;;;;;;;;;26.90;48.16;96503.09;609570;232;64739;-66